createdAt,value
2023-03-17T03:09:44.918Z,4.23
2023-03-17T03:12:11.524Z,3.94
2023-03-17T03:14:38.127Z,3.92
2023-03-17T03:17:06.739Z,4.15
2023-03-17T03:19:33.329Z,4.19
2023-03-17T03:21:59.919Z,4.24
2023-03-17T03:24:26.530Z,4.19
2023-03-17T03:26:53.143Z,4.12
2023-03-17T03:29:19.719Z,4.15
2023-03-17T03:31:46.505Z,4.00
2023-03-17T03:34:13.326Z,4.09
2023-03-17T03:36:40.154Z,3.95
2023-03-17T03:39:06.926Z,4.03
2023-03-17T03:41:33.743Z,4.31
2023-03-17T03:44:00.366Z,3.79
2023-03-17T06:05:21.588Z,4.47
2023-03-17T06:07:54.817Z,4.71
2023-03-17T06:10:22.912Z,4.96
2023-03-17T06:21:22.718Z,5.56
2023-03-17T06:23:49.390Z,5.76
2023-03-17T06:26:15.982Z,5.92
2023-03-17T06:28:42.611Z,6.05
2023-03-17T06:31:09.227Z,6.11
2023-03-17T06:33:35.952Z,6.32
2023-03-17T06:36:02.628Z,6.41
2023-03-17T06:38:29.366Z,6.48
2023-03-17T06:49:33.641Z,7.11
2023-03-17T06:52:00.295Z,7.23
2023-03-17T06:54:26.948Z,7.35
2023-03-17T06:56:53.584Z,7.60
2023-03-17T06:59:20.140Z,7.71
2023-03-17T07:01:46.799Z,7.66
2023-03-17T07:04:13.465Z,7.82
2023-03-17T07:06:40.061Z,7.88
2023-03-17T07:09:07.812Z,8.22
2023-03-17T07:11:34.390Z,8.06
2023-03-17T07:14:00.989Z,8.12
2023-03-17T07:16:27.639Z,8.01
2023-03-17T07:18:54.251Z,8.18
2023-03-17T07:21:20.846Z,8.25
2023-03-17T07:23:47.471Z,8.28
2023-03-17T07:26:14.084Z,8.43
2023-03-17T07:28:40.691Z,8.44
2023-03-17T07:31:07.315Z,8.73
2023-03-17T07:33:33.877Z,9.00
2023-03-17T07:36:00.489Z,8.68
2023-03-17T07:38:27.183Z,8.93
2023-03-17T07:40:53.759Z,9.24
2023-03-17T07:43:20.322Z,9.39
2023-03-17T07:45:47.024Z,9.53
2023-03-17T07:48:13.660Z,9.47
2023-03-17T07:50:40.182Z,9.54
2023-03-17T07:53:06.780Z,9.45
2023-03-17T07:55:33.507Z,9.46
2023-03-17T07:58:00.298Z,9.62
2023-03-17T08:00:26.933Z,9.81
2023-03-17T08:03:06.995Z,9.97
2023-03-17T08:05:36.208Z,9.89
2023-03-17T08:08:02.770Z,10.16
2023-03-17T08:10:29.864Z,10.48
2023-03-17T08:12:56.639Z,10.39
2023-03-17T08:15:23.235Z,10.50
2023-03-17T08:17:49.968Z,10.70
2023-03-17T08:20:16.551Z,10.75
2023-03-17T08:22:43.088Z,10.76
2023-03-17T08:25:09.720Z,10.69
2023-03-17T08:27:36.559Z,10.42
2023-03-17T08:30:03.201Z,10.15
2023-03-17T08:32:29.904Z,10.47
2023-03-17T08:34:56.526Z,10.87
2023-03-17T08:37:23.123Z,10.85
2023-03-17T08:39:49.705Z,11.07
2023-03-17T08:42:16.351Z,10.92
2023-03-17T08:44:44.153Z,11.27
2023-03-17T08:47:10.844Z,11.27
2023-03-17T08:49:37.464Z,11.24
2023-03-17T08:52:04.018Z,11.78
2023-03-17T08:54:30.616Z,11.29
2023-03-17T08:56:57.209Z,11.87
2023-03-17T08:59:23.762Z,12.31
2023-03-17T09:01:50.374Z,12.04
2023-03-17T09:04:17.000Z,12.04
2023-03-17T09:07:01.207Z,12.26
2023-03-17T09:09:29.226Z,10.92
2023-03-17T09:11:55.826Z,11.75
2023-03-17T09:14:22.373Z,12.39
2023-03-17T09:16:48.974Z,12.69
2023-03-17T09:19:15.561Z,13.16
2023-03-17T09:21:42.433Z,13.19
2023-03-17T09:24:09.041Z,13.37
2023-03-17T09:26:35.657Z,13.75
2023-03-17T09:29:03.810Z,12.97
2023-03-17T09:31:31.337Z,13.05
2023-03-17T09:33:57.966Z,13.18
2023-03-17T09:36:24.507Z,13.09
2023-03-17T09:38:51.102Z,13.66
2023-03-17T09:41:17.649Z,14.55
2023-03-17T09:43:44.199Z,14.76
2023-03-17T09:46:10.814Z,14.78
2023-03-17T09:48:37.412Z,14.16
2023-03-17T09:51:03.989Z,14.54
2023-03-17T09:53:30.598Z,14.83
2023-03-17T09:55:57.150Z,14.83
2023-03-17T09:58:23.701Z,14.65
2023-03-17T10:00:50.282Z,14.66
2023-03-17T10:03:16.839Z,14.97
2023-03-17T10:05:43.491Z,15.12
2023-03-17T10:08:26.950Z,15.38
2023-03-17T10:10:55.858Z,15.37
2023-03-17T10:13:22.409Z,14.87
2023-03-17T10:15:49.006Z,15.28
2023-03-17T10:18:15.659Z,14.83
2023-03-17T10:20:42.203Z,14.81
2023-03-17T10:23:08.808Z,14.76
2023-03-17T10:25:35.384Z,15.22
2023-03-17T10:28:01.979Z,15.74
2023-03-17T10:30:28.573Z,15.87
2023-03-17T10:32:55.214Z,15.97
2023-03-17T10:35:21.819Z,16.09
2023-03-17T10:37:48.412Z,15.95
2023-03-17T10:40:14.981Z,15.97
2023-03-17T10:42:41.528Z,16.34
2023-03-17T10:45:08.125Z,16.52
2023-03-17T10:47:34.677Z,16.53
2023-03-17T10:50:01.252Z,17.09
2023-03-17T10:52:27.873Z,17.10
2023-03-17T10:54:54.472Z,17.05
2023-03-17T10:57:21.131Z,16.59
2023-03-17T10:59:47.717Z,16.71
2023-03-17T11:02:14.312Z,16.86
2023-03-17T11:04:40.907Z,17.03
2023-03-17T11:07:07.470Z,17.48
2023-03-17T11:09:34.078Z,17.72
2023-03-17T11:12:00.662Z,17.17
2023-03-17T11:14:27.278Z,16.58
2023-03-17T11:16:53.845Z,15.50
2023-03-17T11:19:20.411Z,15.90
2023-03-17T11:21:47.015Z,15.38
2023-03-17T11:24:13.610Z,15.23
2023-03-17T11:26:40.168Z,15.00
2023-03-17T11:29:06.755Z,15.97
2023-03-17T11:31:33.364Z,16.79
2023-03-17T11:33:59.988Z,17.21
2023-03-17T11:36:26.567Z,17.84
2023-03-17T11:38:53.141Z,16.69
2023-03-17T11:41:19.780Z,16.77
2023-03-17T11:43:46.381Z,16.56
2023-03-17T11:46:13.024Z,16.80
2023-03-17T11:48:39.614Z,18.00
2023-03-17T11:51:06.186Z,18.76
2023-03-17T11:53:32.771Z,18.14
2023-03-17T11:55:59.352Z,18.36
2023-03-17T11:58:25.878Z,18.71
2023-03-17T12:00:52.442Z,17.49
2023-03-17T12:03:19.046Z,16.21
2023-03-17T12:05:45.762Z,15.45
2023-03-17T12:08:12.375Z,16.65
2023-03-17T12:10:38.967Z,16.50
2023-03-17T12:13:05.790Z,16.45
2023-03-17T12:15:32.449Z,17.54
2023-03-17T12:17:59.083Z,18.58
2023-03-17T12:20:25.670Z,17.36
2023-03-17T12:22:52.222Z,17.83
2023-03-17T12:25:18.809Z,18.42
2023-03-17T12:27:45.347Z,17.62
2023-03-17T12:30:11.932Z,17.69
2023-03-17T12:32:38.637Z,18.07
2023-03-17T12:35:05.233Z,18.05
2023-03-17T12:37:31.824Z,18.00
2023-03-17T12:39:58.482Z,17.53
2023-03-17T12:42:25.084Z,16.86
2023-03-17T12:44:51.669Z,16.83
2023-03-17T12:47:18.239Z,17.28
2023-03-17T12:49:44.806Z,16.79
2023-03-17T12:52:11.440Z,18.33
2023-03-17T12:54:38.084Z,19.29
2023-03-17T12:57:04.691Z,18.47
2023-03-17T12:59:31.313Z,17.75
2023-03-17T13:01:57.934Z,17.46
2023-03-17T13:04:26.952Z,18.26
2023-03-17T13:06:53.867Z,19.15
2023-03-17T13:09:20.447Z,18.98
2023-03-17T13:11:47.002Z,16.80
2023-03-17T13:14:13.580Z,18.17
2023-03-17T13:16:40.145Z,18.65
2023-03-17T13:19:06.743Z,18.26
2023-03-17T13:21:36.227Z,19.00
2023-03-17T13:24:03.018Z,18.21
2023-03-17T13:26:29.590Z,18.41
2023-03-17T13:28:56.249Z,18.99
2023-03-17T13:31:22.969Z,17.63
2023-03-17T13:33:49.597Z,18.32
2023-03-17T13:36:16.215Z,18.63
2023-03-17T13:38:42.797Z,19.05
2023-03-17T13:41:09.670Z,19.61
2023-03-17T13:43:36.277Z,18.83
2023-03-17T13:46:02.937Z,18.25
2023-03-17T13:48:29.565Z,18.14
2023-03-17T13:50:56.202Z,18.31
2023-03-17T13:53:22.726Z,18.33
2023-03-17T13:55:49.343Z,19.18
2023-03-17T13:58:16.041Z,19.62
2023-03-17T14:00:42.742Z,20.23
2023-03-17T14:03:09.328Z,20.16
2023-03-17T14:05:35.894Z,19.53
2023-03-17T14:08:02.504Z,18.70
2023-03-17T14:10:29.062Z,19.28
2023-03-17T14:12:55.652Z,19.20
2023-03-17T14:15:22.226Z,18.92
2023-03-17T14:17:48.826Z,19.00
2023-03-17T14:20:15.419Z,19.31
2023-03-17T14:22:44.493Z,19.01
2023-03-17T14:25:11.915Z,19.42
2023-03-17T14:27:38.524Z,20.13
2023-03-17T14:30:05.094Z,19.98
2023-03-17T14:32:31.716Z,19.20
2023-03-17T14:34:58.433Z,19.14
2023-03-17T14:37:24.986Z,18.62
2023-03-17T14:39:51.589Z,18.14
2023-03-17T14:42:18.172Z,17.96
2023-03-17T14:44:44.725Z,18.83
2023-03-17T14:47:12.215Z,18.85
2023-03-17T14:49:38.837Z,18.26
2023-03-17T14:52:05.405Z,17.85
2023-03-17T14:54:31.999Z,18.21
2023-03-17T14:56:58.567Z,18.67
2023-03-17T14:59:25.121Z,18.31
2023-03-17T15:01:51.785Z,18.54
2023-03-17T15:04:18.344Z,18.35
2023-03-17T15:06:44.911Z,19.21
2023-03-17T15:09:11.445Z,19.54
2023-03-17T15:11:38.053Z,19.84
2023-03-17T15:14:04.632Z,20.02
2023-03-17T15:16:31.201Z,19.51
2023-03-17T15:18:57.786Z,18.65
2023-03-17T15:21:24.346Z,18.01
2023-03-17T15:23:50.894Z,17.88
2023-03-17T15:26:17.490Z,17.81
2023-03-17T15:28:44.068Z,17.72
2023-03-17T15:31:10.709Z,17.39
2023-03-17T15:33:37.301Z,17.02
2023-03-17T15:36:03.977Z,17.25
2023-03-17T15:38:30.574Z,17.91
2023-03-17T15:40:57.152Z,18.57
2023-03-17T15:43:23.721Z,18.60
2023-03-17T15:45:51.354Z,18.70
2023-03-17T15:48:18.164Z,18.12
2023-03-17T15:50:44.734Z,18.14
2023-03-17T15:53:11.303Z,17.85
2023-03-17T15:55:37.944Z,18.00
2023-03-17T15:58:04.518Z,17.72
2023-03-17T16:00:31.280Z,17.80
2023-03-17T16:02:58.099Z,17.78
2023-03-17T16:05:24.646Z,18.17
2023-03-17T16:07:51.210Z,17.76
2023-03-17T16:10:17.755Z,17.71
2023-03-17T16:12:44.396Z,17.76
2023-03-17T16:15:22.567Z,17.75
2023-03-17T16:17:50.139Z,17.56
2023-03-17T16:20:16.780Z,16.82
2023-03-17T16:22:43.306Z,16.73
2023-03-17T16:25:09.846Z,16.70
2023-03-17T16:27:36.410Z,16.77
2023-03-17T16:30:03.026Z,16.69
2023-03-17T16:32:29.692Z,16.14
2023-03-17T16:34:56.294Z,15.69
2023-03-17T16:37:22.897Z,15.29
2023-03-17T16:39:49.454Z,15.54
2023-03-17T16:42:16.050Z,15.47
2023-03-17T16:44:42.726Z,14.90
2023-03-17T16:47:09.368Z,15.25
2023-03-17T16:49:35.956Z,15.23
2023-03-17T16:52:02.585Z,15.00
2023-03-17T16:54:29.143Z,15.03
2023-03-17T16:56:55.767Z,15.15
2023-03-17T16:59:22.370Z,15.00
2023-03-17T17:01:48.970Z,14.59
2023-03-17T17:04:15.659Z,14.81
2023-03-17T17:06:42.246Z,15.05
2023-03-17T17:09:08.846Z,15.05
2023-03-17T17:11:35.427Z,15.06
2023-03-17T17:14:01.997Z,14.79
2023-03-17T17:16:28.705Z,14.76
2023-03-17T17:18:55.308Z,14.94
2023-03-17T17:21:21.866Z,15.02
2023-03-17T17:23:48.557Z,15.12
2023-03-17T17:26:15.105Z,15.20
2023-03-17T17:28:41.766Z,15.10
2023-03-17T17:31:08.383Z,15.02
2023-03-17T17:33:35.036Z,14.98
2023-03-17T17:36:01.646Z,14.98
2023-03-17T17:38:28.260Z,15.02
2023-03-17T17:40:54.868Z,15.03
2023-03-17T17:43:21.482Z,14.52
2023-03-17T17:45:48.059Z,14.37
2023-03-17T17:48:14.631Z,14.34
2023-03-17T17:50:41.165Z,14.18
2023-03-17T17:53:07.718Z,13.94
2023-03-17T17:55:34.278Z,14.01
2023-03-17T17:58:00.875Z,14.11
2023-03-17T18:00:27.471Z,14.07
2023-03-17T18:02:54.039Z,14.08
2023-03-17T18:05:20.605Z,14.03
2023-03-17T18:07:47.133Z,13.87
2023-03-17T18:10:13.703Z,13.70
2023-03-17T18:12:40.267Z,13.65
2023-03-17T18:15:06.809Z,13.66
2023-03-17T18:17:33.386Z,13.64
2023-03-17T18:19:59.946Z,13.47
2023-03-17T18:22:26.567Z,13.17
2023-03-17T18:24:53.149Z,13.22
2023-03-17T18:27:19.784Z,13.25
2023-03-17T18:29:46.373Z,13.25
2023-03-17T18:32:12.946Z,13.15
2023-03-17T18:34:39.537Z,13.23
2023-03-17T18:37:06.100Z,13.08
2023-03-17T18:39:32.677Z,13.07
2023-03-17T18:41:59.239Z,12.98
2023-03-17T18:44:25.804Z,12.82
2023-03-17T18:46:52.375Z,12.82
2023-03-17T18:49:18.964Z,12.65
2023-03-17T18:51:45.510Z,12.60
2023-03-17T18:54:12.084Z,12.62
2023-03-17T18:56:38.697Z,12.60
2023-03-17T18:59:05.412Z,12.50
2023-03-17T19:01:31.998Z,12.48
2023-03-17T19:03:59.617Z,12.39
2023-03-17T19:06:26.181Z,12.35
2023-03-17T19:08:52.752Z,12.36
2023-03-17T19:11:19.344Z,12.37
2023-03-17T19:13:45.904Z,12.19
2023-03-17T19:16:12.571Z,12.05
2023-03-17T19:18:41.708Z,11.96
2023-03-17T19:21:08.538Z,11.97
2023-03-17T19:23:35.083Z,11.29
2023-03-17T19:26:01.684Z,11.30
2023-03-17T19:28:28.274Z,11.49
2023-03-17T19:30:54.910Z,11.56
2023-03-17T19:33:21.509Z,11.43
2023-03-17T19:35:48.112Z,11.34
2023-03-17T19:38:14.763Z,11.24
2023-03-17T19:40:41.423Z,11.18
2023-03-17T19:43:08.002Z,10.88
2023-03-17T19:45:34.550Z,10.74
2023-03-17T19:48:01.126Z,10.98
2023-03-17T19:50:27.728Z,11.01
2023-03-17T19:52:54.285Z,11.07
2023-03-17T19:55:20.860Z,11.04
2023-03-17T19:57:47.424Z,10.98
2023-03-17T20:00:13.986Z,10.95
2023-03-17T20:02:40.592Z,10.87
2023-03-17T20:05:07.168Z,10.87
2023-03-17T20:07:33.800Z,10.89
2023-03-17T20:10:00.392Z,10.89
2023-03-17T20:12:26.980Z,10.84
2023-03-17T20:14:53.561Z,10.70
2023-03-17T20:17:20.161Z,10.62
2023-03-17T20:19:46.725Z,10.58
2023-03-17T20:22:13.272Z,10.62
2023-03-17T20:24:39.828Z,10.61
2023-03-17T20:27:06.682Z,10.59
2023-03-17T20:29:33.354Z,10.62
2023-03-17T20:31:59.947Z,10.58
2023-03-17T20:34:26.547Z,10.41
2023-03-17T20:36:53.137Z,10.41
2023-03-17T20:39:19.670Z,10.47
2023-03-17T20:41:46.224Z,10.49
2023-03-17T20:44:12.777Z,10.43
2023-03-17T20:46:39.589Z,10.38
2023-03-17T20:49:06.236Z,10.42
2023-03-17T20:51:32.791Z,10.42
2023-03-17T20:53:59.396Z,10.41
2023-03-17T20:56:26.035Z,10.30
2023-03-17T20:58:52.646Z,10.20
2023-03-17T21:01:20.983Z,10.12
2023-03-17T21:03:47.771Z,10.09
2023-03-17T21:06:14.309Z,10.04
2023-03-17T21:08:40.988Z,9.92
2023-03-17T21:11:07.562Z,9.79
2023-03-17T21:13:34.116Z,9.93
2023-03-17T21:16:00.809Z,9.60
2023-03-17T21:18:27.386Z,9.67
2023-03-17T21:20:53.949Z,9.78
2023-03-17T21:23:20.520Z,9.86
2023-03-17T21:25:47.063Z,9.83
2023-03-17T21:28:13.643Z,9.46
2023-03-17T21:30:40.234Z,9.70
2023-03-17T21:33:06.858Z,9.50
2023-03-17T21:35:33.507Z,9.67
2023-03-17T21:38:00.144Z,9.57
2023-03-17T21:40:26.761Z,9.23
2023-03-17T21:42:53.352Z,9.06
2023-03-17T21:45:19.930Z,8.99
2023-03-17T21:47:46.522Z,8.97
2023-03-17T21:50:13.092Z,8.99
2023-03-17T21:52:39.659Z,8.87
2023-03-17T21:55:06.242Z,8.71
2023-03-17T21:57:32.790Z,8.47
2023-03-17T21:59:59.326Z,8.88
2023-03-17T22:02:25.970Z,8.66
2023-03-17T22:04:52.541Z,8.55
2023-03-17T22:07:19.137Z,8.58
2023-03-17T22:09:45.767Z,8.75
2023-03-17T22:12:12.375Z,8.71
2023-03-17T22:14:38.931Z,8.34
2023-03-17T22:17:05.484Z,8.46
2023-03-17T22:19:32.147Z,8.39
2023-03-17T22:21:58.738Z,8.45
2023-03-17T22:24:25.374Z,8.39
2023-03-17T22:26:51.974Z,8.54
2023-03-17T22:29:18.574Z,8.60
2023-03-17T22:31:45.180Z,8.18
2023-03-17T22:34:11.819Z,8.25
2023-03-17T22:36:38.404Z,8.10
2023-03-17T22:39:05.177Z,8.06
2023-03-17T22:41:31.736Z,8.14
2023-03-17T22:43:58.359Z,8.09
2023-03-17T22:46:25.020Z,8.04
2023-03-17T22:48:51.613Z,8.18
2023-03-17T22:51:18.181Z,8.01
2023-03-17T22:53:44.912Z,8.11
2023-03-17T22:56:11.455Z,8.26
2023-03-17T22:58:38.043Z,8.29
2023-03-17T23:01:04.640Z,8.13
2023-03-17T23:03:31.286Z,8.18
2023-03-17T23:05:57.845Z,7.83
2023-03-17T23:08:24.403Z,7.80
2023-03-17T23:10:50.934Z,7.51
2023-03-17T23:13:17.520Z,7.72
2023-03-17T23:15:44.135Z,7.79
2023-03-17T23:18:10.704Z,7.81
2023-03-17T23:20:37.247Z,8.00
2023-03-17T23:23:03.848Z,7.98
2023-03-17T23:25:30.411Z,7.91
2023-03-17T23:27:56.952Z,7.89
2023-03-17T23:30:23.514Z,7.52
2023-03-17T23:32:50.121Z,7.49
2023-03-17T23:35:16.693Z,7.58
2023-03-17T23:37:43.274Z,7.62
2023-03-17T23:40:09.852Z,7.35
2023-03-17T23:42:36.431Z,7.21
2023-03-17T23:45:02.984Z,7.29
2023-03-17T23:47:29.554Z,7.45
2023-03-17T23:49:56.205Z,7.56
2023-03-17T23:52:22.783Z,7.56
2023-03-17T23:54:49.375Z,7.61
2023-03-17T23:57:15.964Z,7.32
2023-03-17T23:59:42.529Z,7.42
